sensor_id;sensor_type;location;lat;lon;timestamp;pressure;altitude;pressure_sealevel;temperature;humidity
43155;BME280;34212;51.018;13.586;2023-03-26T00:02:40;96794.00;;;7.87;94.03
43155;BME280;34212;51.018;13.586;2023-03-26T00:07:41;96788.31;;;7.91;94.01
43155;BME280;34212;51.018;13.586;2023-03-26T00:12:43;96792.66;;;7.92;93.75
43155;BME280;34212;51.018;13.586;2023-03-26T00:17:44;96804.69;;;7.94;93.69
43155;BME280;34212;51.018;13.586;2023-03-26T00:22:48;96807.63;;;7.99;93.38
43155;BME280;34212;51.018;13.586;2023-03-26T00:27:51;96814.34;;;7.95;93.81
43155;BME280;34212;51.018;13.586;2023-03-26T00:32:52;96816.06;;;7.88;94.08
43155;BME280;34212;51.018;13.586;2023-03-26T00:37:54;96824.97;;;7.80;93.64
43155;BME280;34212;51.018;13.586;2023-03-26T00:42:56;96808.53;;;7.70;93.36
43155;BME280;34212;51.018;13.586;2023-03-26T00:47:57;96808.53;;;7.70;94.41
43155;BME280;34212;51.018;13.586;2023-03-26T00:52:59;96793.06;;;7.74;94.18
43155;BME280;34212;51.018;13.586;2023-03-26T00:58:00;96793.94;;;7.81;93.59
43155;BME280;34212;51.018;13.586;2023-03-26T01:03:03;96786.06;;;7.87;93.82
43155;BME280;34212;51.018;13.586;2023-03-26T01:08:18;96787.50;;;7.90;93.85
43155;BME280;34212;51.018;13.586;2023-03-26T01:13:23;96782.84;;;7.92;93.28
43155;BME280;34212;51.018;13.586;2023-03-26T01:18:25;96795.75;;;7.95;93.53
43155;BME280;34212;51.018;13.586;2023-03-26T01:23:36;96787.94;;;7.94;93.14
43155;BME280;34212;51.018;13.586;2023-03-26T01:28:40;96794.00;;;7.87;92.89
43155;BME280;34212;51.018;13.586;2023-03-26T01:33:51;96784.78;;;7.83;93.13
43155;BME280;34212;51.018;13.586;2023-03-26T01:39:06;96791.72;;;7.84;92.88
43155;BME280;34212;51.018;13.586;2023-03-26T01:49:46;96800.19;;;7.73;92.33
43155;BME280;34212;51.018;13.586;2023-03-26T01:54:48;96793.72;;;7.61;91.50
43155;BME280;34212;51.018;13.586;2023-03-26T02:05:33;96794.19;;;7.50;92.17
43155;BME280;34212;51.018;13.586;2023-03-26T02:10:41;96787.88;;;7.51;93.07
43155;BME280;34212;51.018;13.586;2023-03-26T02:16:15;96787.75;;;7.59;93.78
43155;BME280;34212;51.018;13.586;2023-03-26T02:21:19;96790.31;;;7.67;93.36
43155;BME280;34212;51.018;13.586;2023-03-26T02:26:23;96790.56;;;7.72;93.11
43155;BME280;34212;51.018;13.586;2023-03-26T02:31:33;96795.50;;;7.75;93.17
43155;BME280;34212;51.018;13.586;2023-03-26T02:36:36;96805.13;;;7.76;93.87
43155;BME280;34212;51.018;13.586;2023-03-26T02:41:38;96787.31;;;7.70;93.74
43155;BME280;34212;51.018;13.586;2023-03-26T02:46:43;96805.06;;;7.55;93.03
43155;BME280;34212;51.018;13.586;2023-03-26T02:52:03;96786.34;;;7.42;93.05
43155;BME280;34212;51.018;13.586;2023-03-26T02:57:08;96781.66;;;7.44;94.12
43155;BME280;34212;51.018;13.586;2023-03-26T03:02:28;96780.03;;;7.43;93.57
43155;BME280;34212;51.018;13.586;2023-03-26T03:07:36;96785.34;;;7.43;94.09
43155;BME280;34212;51.018;13.586;2023-03-26T03:12:40;96775.91;;;7.40;94.21
43155;BME280;34212;51.018;13.586;2023-03-26T03:17:41;96778.09;;;7.36;93.85
43155;BME280;34212;51.018;13.586;2023-03-26T03:22:43;96774.56;;;7.29;94.47
43155;BME280;34212;51.018;13.586;2023-03-26T03:27:45;96777.94;;;7.23;94.68
43155;BME280;34212;51.018;13.586;2023-03-26T03:32:47;96781.78;;;7.21;95.42
43155;BME280;34212;51.018;13.586;2023-03-26T03:37:55;96794.38;;;7.18;95.40
43155;BME280;34212;51.018;13.586;2023-03-26T03:42:57;96783.69;;;7.12;95.68
43155;BME280;34212;51.018;13.586;2023-03-26T03:48:08;96804.25;;;7.10;95.64
43155;BME280;34212;51.018;13.586;2023-03-26T03:53:14;96785.25;;;7.06;96.43
43155;BME280;34212;51.018;13.586;2023-03-26T03:58:21;96778.66;;;7.02;95.95
43155;BME280;34212;51.018;13.586;2023-03-26T04:03:25;96788.81;;;6.99;96.13
43155;BME280;34212;51.018;13.586;2023-03-26T04:08:36;96785.00;;;7.01;96.44
43155;BME280;34212;51.018;13.586;2023-03-26T04:13:39;96780.75;;;7.07;96.89
43155;BME280;34212;51.018;13.586;2023-03-26T04:19:01;96776.75;;;7.11;96.77
43155;BME280;34212;51.018;13.586;2023-03-26T04:24:04;96770.63;;;7.10;96.71
43155;BME280;34212;51.018;13.586;2023-03-26T04:29:26;96765.34;;;7.10;95.90
43155;BME280;34212;51.018;13.586;2023-03-26T04:34:32;96757.75;;;7.07;95.89
43155;BME280;34212;51.018;13.586;2023-03-26T04:39:43;96770.53;;;7.04;95.72
43155;BME280;34212;51.018;13.586;2023-03-26T04:45:09;96765.69;;;7.07;95.58
43155;BME280;34212;51.018;13.586;2023-03-26T04:50:13;96755.47;;;7.04;95.73
43155;BME280;34212;51.018;13.586;2023-03-26T04:55:23;96756.66;;;7.02;95.38
43155;BME280;34212;51.018;13.586;2023-03-26T05:00:35;96758.34;;;6.94;95.28
43155;BME280;34212;51.018;13.586;2023-03-26T05:05:37;96753.78;;;6.88;94.81
43155;BME280;34212;51.018;13.586;2023-03-26T05:10:40;96753.69;;;6.82;94.47
43155;BME280;34212;51.018;13.586;2023-03-26T05:15:55;96741.16;;;6.76;94.33
43155;BME280;34212;51.018;13.586;2023-03-26T05:21:09;96751.31;;;6.72;94.59
43155;BME280;34212;51.018;13.586;2023-03-26T05:26:12;96752.50;;;6.69;94.19
43155;BME280;34212;51.018;13.586;2023-03-26T05:31:17;96756.16;;;6.68;94.40
43155;BME280;34212;51.018;13.586;2023-03-26T05:36:22;96764.09;;;6.68;94.40
43155;BME280;34212;51.018;13.586;2023-03-26T05:41:36;96765.56;;;6.71;95.00
43155;BME280;34212;51.018;13.586;2023-03-26T05:46:38;96768.53;;;6.76;94.81
43155;BME280;34212;51.018;13.586;2023-03-26T05:51:41;96772.25;;;6.82;95.42
43155;BME280;34212;51.018;13.586;2023-03-26T05:56:59;96776.47;;;6.91;95.52
43155;BME280;34212;51.018;13.586;2023-03-26T06:02:19;96769.25;;;7.00;95.95
43155;BME280;34212;51.018;13.586;2023-03-26T06:07:39;96779.28;;;7.19;96.95
43155;BME280;34212;51.018;13.586;2023-03-26T06:12:48;96768.16;;;7.38;96.89
43155;BME280;34212;51.018;13.586;2023-03-26T06:17:50;96783.84;;;7.55;96.75
43155;BME280;34212;51.018;13.586;2023-03-26T06:23:24;96781.19;;;7.70;97.09
43155;BME280;34212;51.018;13.586;2023-03-26T06:28:34;96779.22;;;7.78;96.28
43155;BME280;34212;51.018;13.586;2023-03-26T06:33:59;96783.38;;;7.87;96.79
43155;BME280;34212;51.018;13.586;2023-03-26T06:39:01;96782.63;;;7.94;96.46
43155;BME280;34212;51.018;13.586;2023-03-26T06:44:10;96781.88;;;8.00;96.23
43155;BME280;34212;51.018;13.586;2023-03-26T06:49:30;96779.13;;;8.08;96.24
43155;BME280;34212;51.018;13.586;2023-03-26T06:55:00;96771.03;;;8.16;96.06
43155;BME280;34212;51.018;13.586;2023-03-26T07:00:23;96766.22;;;8.26;96.57
43155;BME280;34212;51.018;13.586;2023-03-26T07:05:43;96781.03;;;8.36;96.01
43155;BME280;34212;51.018;13.586;2023-03-26T07:11:03;96767.63;;;8.44;95.99
43155;BME280;34212;51.018;13.586;2023-03-26T07:16:27;96773.56;;;8.46;95.24
43155;BME280;34212;51.018;13.586;2023-03-26T07:22:01;96763.00;;;8.52;95.28
43155;BME280;34212;51.018;13.586;2023-03-26T07:27:35;96768.38;;;8.59;95.65
43155;BME280;34212;51.018;13.586;2023-03-26T07:32:46;96773.53;;;8.67;96.03
43155;BME280;34212;51.018;13.586;2023-03-26T07:38:32;96771.63;;;8.83;96.45
43155;BME280;34212;51.018;13.586;2023-03-26T07:49:29;96774.31;;;8.89;95.49
43155;BME280;34212;51.018;13.586;2023-03-26T07:54:50;96768.41;;;8.94;95.93
43155;BME280;34212;51.018;13.586;2023-03-26T08:00:14;96765.03;;;9.07;96.33
43155;BME280;34212;51.018;13.586;2023-03-26T08:05:35;96765.28;;;9.18;96.05
43155;BME280;34212;51.018;13.586;2023-03-26T08:16:29;96760.63;;;9.27;94.64
43155;BME280;34212;51.018;13.586;2023-03-26T08:22:00;96758.59;;;9.29;95.09
43155;BME280;34212;51.018;13.586;2023-03-26T08:27:08;96772.31;;;9.33;94.97
43155;BME280;34212;51.018;13.586;2023-03-26T08:32:15;96767.25;;;9.38;95.17
43155;BME280;34212;51.018;13.586;2023-03-26T08:37:17;96764.19;;;9.41;94.86
43155;BME280;34212;51.018;13.586;2023-03-26T09:04:11;96743.91;;;10.14;95.32
43155;BME280;34212;51.018;13.586;2023-03-26T09:09:33;96747.19;;;10.16;94.35
43155;BME280;34212;51.018;13.586;2023-03-26T09:36:17;96711.34;;;10.72;95.91
43155;BME280;34212;51.018;13.586;2023-03-26T09:41:24;96703.09;;;11.00;95.33
43155;BME280;34212;51.018;13.586;2023-03-26T10:08:35;96696.22;;;11.31;93.61
43155;BME280;34212;51.018;13.586;2023-03-26T10:13:51;96681.00;;;11.38;94.14
43155;BME280;34212;51.018;13.586;2023-03-26T10:19:34;96678.28;;;11.45;93.40
43155;BME280;34212;51.018;13.586;2023-03-26T10:40:31;96622.06;;;12.28;91.63
43155;BME280;34212;51.018;13.586;2023-03-26T10:51:41;96605.31;;;12.58;89.31
43155;BME280;34212;51.018;13.586;2023-03-26T10:56:48;96602.09;;;12.49;89.02
43155;BME280;34212;51.018;13.586;2023-03-26T11:07:44;96588.22;;;12.40;86.63
43155;BME280;34212;51.018;13.586;2023-03-26T11:13:11;96586.75;;;12.44;86.46
43155;BME280;34212;51.018;13.586;2023-03-26T11:18:56;96588.97;;;12.66;88.12
43155;BME280;34212;51.018;13.586;2023-03-26T11:39:58;96565.81;;;13.57;88.01
43155;BME280;34212;51.018;13.586;2023-03-26T11:45:04;96556.72;;;13.58;86.65
43155;BME280;34212;51.018;13.586;2023-03-26T11:50:15;96554.63;;;13.60;87.28
43155;BME280;34212;51.018;13.586;2023-03-26T11:55:18;96557.88;;;13.50;87.08
43155;BME280;34212;51.018;13.586;2023-03-26T12:00:22;96553.94;;;13.53;86.74
43155;BME280;34212;51.018;13.586;2023-03-26T12:05:27;96557.94;;;13.32;85.00
43155;BME280;34212;51.018;13.586;2023-03-26T12:10:38;96551.41;;;13.28;86.60
43155;BME280;34212;51.018;13.586;2023-03-26T12:15:45;96550.50;;;13.34;87.01
43155;BME280;34212;51.018;13.586;2023-03-26T12:20:46;96550.97;;;13.43;87.20
43155;BME280;34212;51.018;13.586;2023-03-26T12:26:09;96535.50;;;13.45;85.93
43155;BME280;34212;51.018;13.586;2023-03-26T12:31:12;96530.50;;;13.48;85.61
43155;BME280;34212;51.018;13.586;2023-03-26T12:36:29;96537.31;;;13.32;86.06
43155;BME280;34212;51.018;13.586;2023-03-26T12:41:39;96536.31;;;13.15;86.83
43155;BME280;34212;51.018;13.586;2023-03-26T12:47:14;96529.75;;;12.81;85.08
43155;BME280;34212;51.018;13.586;2023-03-26T12:58:38;96528.16;;;12.43;87.12
43155;BME280;34212;51.018;13.586;2023-03-26T13:09:19;96520.78;;;12.38;86.30
43155;BME280;34212;51.018;13.586;2023-03-26T13:19:58;96513.50;;;12.27;83.79
43155;BME280;34212;51.018;13.586;2023-03-26T13:35:51;96500.38;;;12.25;83.60
43155;BME280;34212;51.018;13.586;2023-03-26T13:46:46;96495.47;;;12.22;83.94
43155;BME280;34212;51.018;13.586;2023-03-26T13:51:54;96501.63;;;12.23;84.33
43155;BME280;34212;51.018;13.586;2023-03-26T13:57:05;96498.22;;;12.34;85.14
43155;BME280;34212;51.018;13.586;2023-03-26T14:02:12;96493.25;;;12.38;85.78
43155;BME280;34212;51.018;13.586;2023-03-26T14:07:59;96496.13;;;12.36;85.92
43155;BME280;34212;51.018;13.586;2023-03-26T14:13:09;96510.50;;;11.98;84.73
43155;BME280;34212;51.018;13.586;2023-03-26T14:50:57;96492.66;;;10.79;88.49
43155;BME280;34212;51.018;13.586;2023-03-26T15:07:40;96489.38;;;10.32;88.39
43155;BME280;34212;51.018;13.586;2023-03-26T15:13:00;96487.72;;;10.24;88.51
43155;BME280;34212;51.018;13.586;2023-03-26T15:39:59;96482.47;;;9.84;89.60
43155;BME280;34212;51.018;13.586;2023-03-26T16:06:37;96473.66;;;9.90;90.00
43155;BME280;34212;51.018;13.586;2023-03-26T16:11:56;96469.75;;;9.93;90.17
43155;BME280;34212;51.018;13.586;2023-03-26T16:16:59;96473.47;;;9.92;89.73
43155;BME280;34212;51.018;13.586;2023-03-26T16:22:10;96472.44;;;9.93;90.11
43155;BME280;34212;51.018;13.586;2023-03-26T16:32:22;96473.66;;;9.84;89.36
43155;BME280;34212;51.018;13.586;2023-03-26T16:53:51;96465.94;;;9.36;90.10
43155;BME280;34212;51.018;13.586;2023-03-26T16:59:05;96473.53;;;9.25;90.13
43155;BME280;34212;51.018;13.586;2023-03-26T17:04:17;96466.53;;;9.18;89.99
43155;BME280;34212;51.018;13.586;2023-03-26T17:15:05;96468.38;;;8.97;89.55
43155;BME280;34212;51.018;13.586;2023-03-26T17:20:29;96480.00;;;8.83;89.52
43155;BME280;34212;51.018;13.586;2023-03-26T17:41:14;96483.19;;;8.52;91.44
43155;BME280;34212;51.018;13.586;2023-03-26T17:46:36;96487.69;;;8.58;90.52
43155;BME280;34212;51.018;13.586;2023-03-26T17:51:46;96494.25;;;8.62;90.11
43155;BME280;34212;51.018;13.586;2023-03-26T17:56:51;96494.44;;;8.61;90.89
43155;BME280;34212;51.018;13.586;2023-03-26T18:01:56;96496.69;;;8.57;91.12
43155;BME280;34212;51.018;13.586;2023-03-26T18:07:32;96493.81;;;8.59;90.49
43155;BME280;34212;51.018;13.586;2023-03-26T18:18:19;96500.03;;;8.72;90.58
43155;BME280;34212;51.018;13.586;2023-03-26T18:23:35;96499.63;;;8.75;90.84
43155;BME280;34212;51.018;13.586;2023-03-26T18:28:43;96502.91;;;8.84;90.40
43155;BME280;34212;51.018;13.586;2023-03-26T18:33:49;96499.25;;;8.92;90.92
43155;BME280;34212;51.018;13.586;2023-03-26T18:38:57;96501.69;;;9.00;91.17
43155;BME280;34212;51.018;13.586;2023-03-26T18:44:01;96497.81;;;9.02;91.05
43155;BME280;34212;51.018;13.586;2023-03-26T18:49:04;96495.97;;;9.03;90.27
43155;BME280;34212;51.018;13.586;2023-03-26T18:54:08;96488.22;;;9.01;90.49
43155;BME280;34212;51.018;13.586;2023-03-26T18:59:24;96481.47;;;8.99;90.66
43155;BME280;34212;51.018;13.586;2023-03-26T19:04:29;96481.88;;;9.02;91.27
43155;BME280;34212;51.018;13.586;2023-03-26T19:09:33;96477.19;;;9.05;91.10
43155;BME280;34212;51.018;13.586;2023-03-26T19:14:50;96471.44;;;9.08;90.87
43155;BME280;34212;51.018;13.586;2023-03-26T19:19:54;96462.44;;;9.09;90.88
43155;BME280;34212;51.018;13.586;2023-03-26T19:25:00;96471.88;;;9.11;90.68
43155;BME280;34212;51.018;13.586;2023-03-26T19:30:03;96456.31;;;9.08;90.38
43155;BME280;34212;51.018;13.586;2023-03-26T19:35:18;96451.00;;;9.08;90.71
43155;BME280;34212;51.018;13.586;2023-03-26T19:40:22;96448.34;;;9.08;91.32
43155;BME280;34212;51.018;13.586;2023-03-26T19:45:32;96441.97;;;9.09;90.14
43155;BME280;34212;51.018;13.586;2023-03-26T19:50:35;96437.69;;;9.08;90.56
43155;BME280;34212;51.018;13.586;2023-03-26T19:55:51;96431.34;;;9.09;90.70
43155;BME280;34212;51.018;13.586;2023-03-26T20:00:53;96432.19;;;9.10;90.91
43155;BME280;34212;51.018;13.586;2023-03-26T20:05:56;96425.22;;;9.09;90.92
43155;BME280;34212;51.018;13.586;2023-03-26T20:10:59;96419.06;;;9.08;90.88
43155;BME280;34212;51.018;13.586;2023-03-26T20:16:10;96404.75;;;9.09;90.54
43155;BME280;34212;51.018;13.586;2023-03-26T20:21:13;96408.44;;;9.08;91.09
43155;BME280;34212;51.018;13.586;2023-03-26T20:26:15;96391.84;;;9.06;91.28
43155;BME280;34212;51.018;13.586;2023-03-26T20:31:21;96390.44;;;9.04;90.83
43155;BME280;34212;51.018;13.586;2023-03-26T20:36:25;96397.00;;;9.01;90.94
43155;BME280;34212;51.018;13.586;2023-03-26T20:41:44;96394.94;;;9.03;90.31
43155;BME280;34212;51.018;13.586;2023-03-26T20:46:47;96385.13;;;9.04;90.73
43155;BME280;34212;51.018;13.586;2023-03-26T20:51:49;96386.94;;;9.03;91.22
43155;BME280;34212;51.018;13.586;2023-03-26T20:56:52;96391.25;;;9.04;90.57
43155;BME280;34212;51.018;13.586;2023-03-26T21:01:54;96392.09;;;8.98;91.15
43155;BME280;34212;51.018;13.586;2023-03-26T21:06:56;96390.44;;;8.97;90.87
43155;BME280;34212;51.018;13.586;2023-03-26T21:12:26;96385.31;;;8.95;91.04
43155;BME280;34212;51.018;13.586;2023-03-26T21:17:30;96390.66;;;8.89;91.43
43155;BME280;34212;51.018;13.586;2023-03-26T21:22:52;96387.75;;;8.84;90.84
43155;BME280;34212;51.018;13.586;2023-03-26T21:28:01;96382.66;;;8.75;90.91
43155;BME280;34212;51.018;13.586;2023-03-26T21:33:08;96388.56;;;8.77;91.63
43155;BME280;34212;51.018;13.586;2023-03-26T21:38:10;96407.59;;;8.81;91.67
43155;BME280;34212;51.018;13.586;2023-03-26T21:43:12;96418.63;;;8.85;91.26
43155;BME280;34212;51.018;13.586;2023-03-26T21:48:16;96418.66;;;8.91;91.08
43155;BME280;34212;51.018;13.586;2023-03-26T21:53:18;96427.06;;;8.95;91.20
43155;BME280;34212;51.018;13.586;2023-03-26T22:03:33;96437.06;;;8.99;91.01
43155;BME280;34212;51.018;13.586;2023-03-26T22:08:39;96434.22;;;9.01;90.91
43155;BME280;34212;51.018;13.586;2023-03-26T22:13:41;96431.56;;;9.01;91.21
43155;BME280;34212;51.018;13.586;2023-03-26T22:18:43;96430.53;;;9.02;91.36
43155;BME280;34212;51.018;13.586;2023-03-26T22:23:45;96434.63;;;8.98;91.40
43155;BME280;34212;51.018;13.586;2023-03-26T22:28:50;96427.66;;;8.97;90.45
43155;BME280;34212;51.018;13.586;2023-03-26T22:33:53;96426.84;;;8.96;90.95
43155;BME280;34212;51.018;13.586;2023-03-26T22:38:54;96442.78;;;8.96;90.76
43155;BME280;34212;51.018;13.586;2023-03-26T22:43:56;96437.88;;;8.93;90.14
43155;BME280;34212;51.018;13.586;2023-03-26T22:49:13;96437.28;;;8.91;90.85
43155;BME280;34212;51.018;13.586;2023-03-26T22:54:14;96437.88;;;8.87;90.45
43155;BME280;34212;51.018;13.586;2023-03-26T22:59:16;96439.31;;;8.83;90.76
43155;BME280;34212;51.018;13.586;2023-03-26T23:04:18;96446.84;;;8.72;90.69
43155;BME280;34212;51.018;13.586;2023-03-26T23:09:32;96438.03;;;8.72;90.98
43155;BME280;34212;51.018;13.586;2023-03-26T23:14:34;96447.69;;;8.73;90.53
43155;BME280;34212;51.018;13.586;2023-03-26T23:19:36;96436.22;;;8.72;90.12
43155;BME280;34212;51.018;13.586;2023-03-26T23:24:39;96454.59;;;8.67;91.38
43155;BME280;34212;51.018;13.586;2023-03-26T23:29:40;96460.94;;;8.66;90.49
43155;BME280;34212;51.018;13.586;2023-03-26T23:34:42;96474.44;;;8.65;90.59
43155;BME280;34212;51.018;13.586;2023-03-26T23:39:52;96479.09;;;8.63;90.96
43155;BME280;34212;51.018;13.586;2023-03-26T23:44:54;96460.72;;;8.61;90.64
43155;BME280;34212;51.018;13.586;2023-03-26T23:49:56;96476.03;;;8.59;91.16
43155;BME280;34212;51.018;13.586;2023-03-26T23:54:58;96483.00;;;8.60;90.95
